Terminal Aerodrome Forecast
Issued by NWS

Home | Current Version | Previous Version | Text Only | Print | Product List | Glossary On
Versions: 1 2 3 4 5 6 7 8 9 10 11 12 13 14 15 16
000
FTUS46 KMTR 202300
TAFOAK
TAF
KOAK 202330Z 2100/2206 27015KT P6SM FEW010 BKN060
     FM210400 28008KT P6SM FEW010 SCT060
     FM211000 VRB04KT P6SM FEW015
     FM212100 29012KT P6SM SKC
     FM220400 29006KT P6SM SKC=

USA.gov is the U.S. government's official web portal to all federal, state and local government web resources and services.